sensor_id;sensor_type;location;lat;lon;timestamp;temperature;humidity
17421;DHT22;8828;48.800;9.540;2023-05-10T00:00:13;17.00;99.90
17421;DHT22;8828;48.800;9.540;2023-05-10T00:02:43;16.90;99.90
17421;DHT22;8828;48.800;9.540;2023-05-10T00:05:11;16.90;99.90
17421;DHT22;8828;48.800;9.540;2023-05-10T00:07:39;16.90;99.90
17421;DHT22;8828;48.800;9.540;2023-05-10T00:10:08;16.90;99.90
17421;DHT22;8828;48.800;9.540;2023-05-10T00:12:36;16.90;99.90
17421;DHT22;8828;48.800;9.540;2023-05-10T00:15:05;17.00;99.90
17421;DHT22;8828;48.800;9.540;2023-05-10T00:17:33;16.90;99.90
17421;DHT22;8828;48.800;9.540;2023-05-10T00:20:03;17.00;99.90
17421;DHT22;8828;48.800;9.540;2023-05-10T00:22:32;17.00;99.90
17421;DHT22;8828;48.800;9.540;2023-05-10T00:25:00;17.00;99.90
17421;DHT22;8828;48.800;9.540;2023-05-10T00:27:28;17.00;99.90
17421;DHT22;8828;48.800;9.540;2023-05-10T00:29:56;17.00;99.90
17421;DHT22;8828;48.800;9.540;2023-05-10T00:32:23;17.00;99.90
17421;DHT22;8828;48.800;9.540;2023-05-10T00:34:51;17.00;99.90
17421;DHT22;8828;48.800;9.540;2023-05-10T00:37:21;17.00;99.90
17421;DHT22;8828;48.800;9.540;2023-05-10T00:39:48;17.00;99.90
17421;DHT22;8828;48.800;9.540;2023-05-10T00:42:16;16.90;99.90
17421;DHT22;8828;48.800;9.540;2023-05-10T00:44:44;16.90;99.90
17421;DHT22;8828;48.800;9.540;2023-05-10T00:47:13;16.80;99.90
17421;DHT22;8828;48.800;9.540;2023-05-10T00:49:41;16.60;99.90
17421;DHT22;8828;48.800;9.540;2023-05-10T00:52:09;16.60;99.90
17421;DHT22;8828;48.800;9.540;2023-05-10T00:54:38;16.60;99.90
17421;DHT22;8828;48.800;9.540;2023-05-10T00:57:07;16.60;99.90
17421;DHT22;8828;48.800;9.540;2023-05-10T00:59:35;16.50;99.90
17421;DHT22;8828;48.800;9.540;2023-05-10T01:02:03;16.60;99.90
17421;DHT22;8828;48.800;9.540;2023-05-10T01:04:31;16.50;99.90
17421;DHT22;8828;48.800;9.540;2023-05-10T01:06:59;16.50;99.90
17421;DHT22;8828;48.800;9.540;2023-05-10T01:13:09;16.40;99.90
17421;DHT22;8828;48.800;9.540;2023-05-10T01:15:38;16.40;99.90
17421;DHT22;8828;48.800;9.540;2023-05-10T01:18:08;16.40;99.90
17421;DHT22;8828;48.800;9.540;2023-05-10T01:20:43;16.40;99.90
17421;DHT22;8828;48.800;9.540;2023-05-10T01:23:31;16.40;99.90
17421;DHT22;8828;48.800;9.540;2023-05-10T01:26:42;16.50;99.90
17421;DHT22;8828;48.800;9.540;2023-05-10T01:29:30;16.40;99.90
17421;DHT22;8828;48.800;9.540;2023-05-10T01:32:26;16.50;99.90
17421;DHT22;8828;48.800;9.540;2023-05-10T01:35:00;16.50;99.90
17421;DHT22;8828;48.800;9.540;2023-05-10T01:37:40;16.40;99.90
17421;DHT22;8828;48.800;9.540;2023-05-10T01:40:15;16.40;99.90
17421;DHT22;8828;48.800;9.540;2023-05-10T01:42:49;16.30;99.90
17421;DHT22;8828;48.800;9.540;2023-05-10T01:45:21;16.30;99.90
17421;DHT22;8828;48.800;9.540;2023-05-10T01:47:58;16.30;99.90
17421;DHT22;8828;48.800;9.540;2023-05-10T01:50:30;16.30;99.90
17421;DHT22;8828;48.800;9.540;2023-05-10T01:53:01;16.20;99.90
17421;DHT22;8828;48.800;9.540;2023-05-10T01:55:32;16.20;99.90
17421;DHT22;8828;48.800;9.540;2023-05-10T01:58:04;16.20;99.90
17421;DHT22;8828;48.800;9.540;2023-05-10T02:00:34;16.20;99.90
17421;DHT22;8828;48.800;9.540;2023-05-10T02:03:06;16.20;99.90
17421;DHT22;8828;48.800;9.540;2023-05-10T02:05:37;16.10;99.90
17421;DHT22;8828;48.800;9.540;2023-05-10T02:08:06;16.10;99.90
17421;DHT22;8828;48.800;9.540;2023-05-10T02:10:35;16.10;99.90
17421;DHT22;8828;48.800;9.540;2023-05-10T02:13:05;16.00;99.90
17421;DHT22;8828;48.800;9.540;2023-05-10T02:15:34;16.00;99.90
17421;DHT22;8828;48.800;9.540;2023-05-10T02:18:05;16.00;99.90
17421;DHT22;8828;48.800;9.540;2023-05-10T02:20:35;16.00;99.90
17421;DHT22;8828;48.800;9.540;2023-05-10T02:23:03;15.90;99.90
17421;DHT22;8828;48.800;9.540;2023-05-10T02:25:32;15.90;99.90
17421;DHT22;8828;48.800;9.540;2023-05-10T02:28:02;16.00;99.90
17421;DHT22;8828;48.800;9.540;2023-05-10T02:30:31;15.90;99.90
17421;DHT22;8828;48.800;9.540;2023-05-10T02:33:01;16.00;99.90
17421;DHT22;8828;48.800;9.540;2023-05-10T02:35:31;15.90;99.90
17421;DHT22;8828;48.800;9.540;2023-05-10T02:38:00;16.00;99.90
17421;DHT22;8828;48.800;9.540;2023-05-10T02:40:29;15.90;99.90
17421;DHT22;8828;48.800;9.540;2023-05-10T02:42:59;15.90;99.90
17421;DHT22;8828;48.800;9.540;2023-05-10T02:45:31;15.80;99.90
17421;DHT22;8828;48.800;9.540;2023-05-10T02:47:59;15.80;99.90
17421;DHT22;8828;48.800;9.540;2023-05-10T02:50:28;15.70;99.90
17421;DHT22;8828;48.800;9.540;2023-05-10T02:53:01;15.80;99.90
17421;DHT22;8828;48.800;9.540;2023-05-10T02:55:35;15.70;99.90
17421;DHT22;8828;48.800;9.540;2023-05-10T02:58:04;15.70;99.90
17421;DHT22;8828;48.800;9.540;2023-05-10T03:00:32;15.70;99.90
17421;DHT22;8828;48.800;9.540;2023-05-10T03:03:00;15.70;99.90
17421;DHT22;8828;48.800;9.540;2023-05-10T03:05:28;15.60;99.90
17421;DHT22;8828;48.800;9.540;2023-05-10T03:07:56;15.60;99.90
17421;DHT22;8828;48.800;9.540;2023-05-10T03:10:28;15.60;99.90
17421;DHT22;8828;48.800;9.540;2023-05-10T03:13:05;15.50;99.90
17421;DHT22;8828;48.800;9.540;2023-05-10T03:15:52;15.60;99.90
17421;DHT22;8828;48.800;9.540;2023-05-10T03:18:29;15.60;99.90
17421;DHT22;8828;48.800;9.540;2023-05-10T03:21:02;15.60;99.90
17421;DHT22;8828;48.800;9.540;2023-05-10T03:23:35;15.70;99.90
17421;DHT22;8828;48.800;9.540;2023-05-10T03:26:06;15.70;99.90
17421;DHT22;8828;48.800;9.540;2023-05-10T03:28:35;15.60;99.90
17421;DHT22;8828;48.800;9.540;2023-05-10T03:31:04;15.60;99.90
17421;DHT22;8828;48.800;9.540;2023-05-10T03:33:33;15.60;99.90
17421;DHT22;8828;48.800;9.540;2023-05-10T03:36:01;15.70;99.90
17421;DHT22;8828;48.800;9.540;2023-05-10T03:38:29;15.70;99.90
17421;DHT22;8828;48.800;9.540;2023-05-10T03:40:57;15.60;99.90
17421;DHT22;8828;48.800;9.540;2023-05-10T03:43:26;15.70;99.90
17421;DHT22;8828;48.800;9.540;2023-05-10T03:45:54;15.70;99.90
17421;DHT22;8828;48.800;9.540;2023-05-10T03:48:22;15.70;99.90
17421;DHT22;8828;48.800;9.540;2023-05-10T03:50:50;15.60;99.90
17421;DHT22;8828;48.800;9.540;2023-05-10T03:53:17;15.70;99.90
17421;DHT22;8828;48.800;9.540;2023-05-10T03:55:45;15.70;99.90
17421;DHT22;8828;48.800;9.540;2023-05-10T03:58:13;15.70;99.90
17421;DHT22;8828;48.800;9.540;2023-05-10T04:00:43;15.70;99.90
17421;DHT22;8828;48.800;9.540;2023-05-10T04:03:12;15.70;99.90
17421;DHT22;8828;48.800;9.540;2023-05-10T04:05:40;15.70;99.90
17421;DHT22;8828;48.800;9.540;2023-05-10T04:08:08;15.70;99.90
17421;DHT22;8828;48.800;9.540;2023-05-10T04:10:36;15.70;99.90
17421;DHT22;8828;48.800;9.540;2023-05-10T04:13:04;15.60;99.90
17421;DHT22;8828;48.800;9.540;2023-05-10T04:15:32;15.60;99.90
17421;DHT22;8828;48.800;9.540;2023-05-10T04:18:01;15.60;99.90
17421;DHT22;8828;48.800;9.540;2023-05-10T04:20:32;15.60;99.90
17421;DHT22;8828;48.800;9.540;2023-05-10T04:23:00;15.50;99.90
17421;DHT22;8828;48.800;9.540;2023-05-10T04:25:28;15.50;99.90
17421;DHT22;8828;48.800;9.540;2023-05-10T04:27:56;15.40;99.90
17421;DHT22;8828;48.800;9.540;2023-05-10T04:30:24;15.40;99.90
17421;DHT22;8828;48.800;9.540;2023-05-10T04:32:52;15.40;99.90
17421;DHT22;8828;48.800;9.540;2023-05-10T04:35:21;15.50;99.90
17421;DHT22;8828;48.800;9.540;2023-05-10T04:37:49;15.50;99.90
17421;DHT22;8828;48.800;9.540;2023-05-10T04:40:17;15.60;99.90
17421;DHT22;8828;48.800;9.540;2023-05-10T04:42:45;15.60;99.90
17421;DHT22;8828;48.800;9.540;2023-05-10T04:45:13;15.60;99.90
17421;DHT22;8828;48.800;9.540;2023-05-10T04:47:42;15.60;99.90
17421;DHT22;8828;48.800;9.540;2023-05-10T04:50:10;15.60;99.90
17421;DHT22;8828;48.800;9.540;2023-05-10T04:52:39;15.70;99.90
17421;DHT22;8828;48.800;9.540;2023-05-10T04:55:07;15.70;99.90
17421;DHT22;8828;48.800;9.540;2023-05-10T04:57:37;15.70;99.90
17421;DHT22;8828;48.800;9.540;2023-05-10T05:00:06;15.70;99.90
17421;DHT22;8828;48.800;9.540;2023-05-10T05:02:34;15.80;99.90
17421;DHT22;8828;48.800;9.540;2023-05-10T05:05:03;15.80;99.90
17421;DHT22;8828;48.800;9.540;2023-05-10T05:07:31;15.80;99.90
17421;DHT22;8828;48.800;9.540;2023-05-10T05:10:00;15.90;99.90
17421;DHT22;8828;48.800;9.540;2023-05-10T05:12:28;15.90;99.90
17421;DHT22;8828;48.800;9.540;2023-05-10T05:14:57;15.90;99.90
17421;DHT22;8828;48.800;9.540;2023-05-10T05:17:24;15.90;99.90
17421;DHT22;8828;48.800;9.540;2023-05-10T05:19:52;16.00;99.90
17421;DHT22;8828;48.800;9.540;2023-05-10T05:22:20;16.00;99.90
17421;DHT22;8828;48.800;9.540;2023-05-10T05:24:54;16.00;99.90
17421;DHT22;8828;48.800;9.540;2023-05-10T05:27:23;16.00;99.90
17421;DHT22;8828;48.800;9.540;2023-05-10T05:29:53;16.00;99.90
17421;DHT22;8828;48.800;9.540;2023-05-10T05:32:21;16.00;99.90
17421;DHT22;8828;48.800;9.540;2023-05-10T05:34:49;16.00;99.90
17421;DHT22;8828;48.800;9.540;2023-05-10T05:37:19;16.10;99.90
17421;DHT22;8828;48.800;9.540;2023-05-10T05:39:48;16.10;99.90
17421;DHT22;8828;48.800;9.540;2023-05-10T05:42:16;16.10;99.90
17421;DHT22;8828;48.800;9.540;2023-05-10T05:44:46;16.10;99.90
17421;DHT22;8828;48.800;9.540;2023-05-10T05:47:14;16.10;99.90
17421;DHT22;8828;48.800;9.540;2023-05-10T05:49:42;16.20;99.90
17421;DHT22;8828;48.800;9.540;2023-05-10T05:52:12;16.20;99.90
17421;DHT22;8828;48.800;9.540;2023-05-10T05:54:40;16.20;99.90
17421;DHT22;8828;48.800;9.540;2023-05-10T05:57:08;16.20;99.90
17421;DHT22;8828;48.800;9.540;2023-05-10T05:59:36;16.20;99.90
17421;DHT22;8828;48.800;9.540;2023-05-10T06:02:10;16.30;99.90
17421;DHT22;8828;48.800;9.540;2023-05-10T06:04:38;16.20;99.90
17421;DHT22;8828;48.800;9.540;2023-05-10T06:07:10;16.30;99.90
17421;DHT22;8828;48.800;9.540;2023-05-10T06:09:37;16.30;99.90
17421;DHT22;8828;48.800;9.540;2023-05-10T06:12:06;16.30;99.90
17421;DHT22;8828;48.800;9.540;2023-05-10T06:14:33;16.30;99.90
17421;DHT22;8828;48.800;9.540;2023-05-10T06:17:01;16.30;99.90
17421;DHT22;8828;48.800;9.540;2023-05-10T06:19:33;16.30;99.90
17421;DHT22;8828;48.800;9.540;2023-05-10T06:22:00;16.30;99.90
17421;DHT22;8828;48.800;9.540;2023-05-10T06:24:28;16.30;99.90
17421;DHT22;8828;48.800;9.540;2023-05-10T06:26:56;16.30;99.90
17421;DHT22;8828;48.800;9.540;2023-05-10T06:29:26;16.20;99.90
17421;DHT22;8828;48.800;9.540;2023-05-10T06:31:54;16.20;99.90
17421;DHT22;8828;48.800;9.540;2023-05-10T06:34:22;16.20;99.90
17421;DHT22;8828;48.800;9.540;2023-05-10T06:36:52;16.20;99.90
17421;DHT22;8828;48.800;9.540;2023-05-10T06:39:20;16.20;99.90
17421;DHT22;8828;48.800;9.540;2023-05-10T06:41:48;16.10;99.90
17421;DHT22;8828;48.800;9.540;2023-05-10T06:44:15;16.20;99.90
17421;DHT22;8828;48.800;9.540;2023-05-10T06:46:43;16.20;99.90
17421;DHT22;8828;48.800;9.540;2023-05-10T06:49:12;16.20;99.90
17421;DHT22;8828;48.800;9.540;2023-05-10T06:51:40;16.20;99.90
17421;DHT22;8828;48.800;9.540;2023-05-10T06:54:09;16.10;99.90
17421;DHT22;8828;48.800;9.540;2023-05-10T06:56:37;16.10;99.90
17421;DHT22;8828;48.800;9.540;2023-05-10T06:59:05;16.10;99.90
17421;DHT22;8828;48.800;9.540;2023-05-10T07:01:33;16.10;99.90
17421;DHT22;8828;48.800;9.540;2023-05-10T07:04:01;16.20;99.90
17421;DHT22;8828;48.800;9.540;2023-05-10T07:06:29;16.20;99.90
17421;DHT22;8828;48.800;9.540;2023-05-10T07:09:00;16.20;99.90
17421;DHT22;8828;48.800;9.540;2023-05-10T07:11:29;16.20;99.90
17421;DHT22;8828;48.800;9.540;2023-05-10T07:13:57;16.20;99.90
17421;DHT22;8828;48.800;9.540;2023-05-10T07:16:26;16.10;99.90
17421;DHT22;8828;48.800;9.540;2023-05-10T07:18:54;16.20;99.90
17421;DHT22;8828;48.800;9.540;2023-05-10T07:21:22;16.20;99.90
17421;DHT22;8828;48.800;9.540;2023-05-10T07:23:50;16.20;99.90
17421;DHT22;8828;48.800;9.540;2023-05-10T07:26:19;16.20;99.90
17421;DHT22;8828;48.800;9.540;2023-05-10T07:28:48;16.20;99.90
17421;DHT22;8828;48.800;9.540;2023-05-10T07:31:16;16.20;99.90
17421;DHT22;8828;48.800;9.540;2023-05-10T07:33:44;16.20;99.90
17421;DHT22;8828;48.800;9.540;2023-05-10T07:36:12;16.30;99.90
17421;DHT22;8828;48.800;9.540;2023-05-10T07:38:41;16.20;99.90
17421;DHT22;8828;48.800;9.540;2023-05-10T07:41:09;16.20;99.90
17421;DHT22;8828;48.800;9.540;2023-05-10T07:43:37;16.20;99.90
17421;DHT22;8828;48.800;9.540;2023-05-10T07:46:06;16.30;99.90
17421;DHT22;8828;48.800;9.540;2023-05-10T07:48:36;16.20;99.90
17421;DHT22;8828;48.800;9.540;2023-05-10T07:51:05;16.20;99.90
17421;DHT22;8828;48.800;9.540;2023-05-10T07:53:35;16.20;99.90
17421;DHT22;8828;48.800;9.540;2023-05-10T07:56:19;16.30;99.90
17421;DHT22;8828;48.800;9.540;2023-05-10T07:58:47;16.40;99.90
17421;DHT22;8828;48.800;9.540;2023-05-10T08:01:17;16.40;99.90
17421;DHT22;8828;48.800;9.540;2023-05-10T08:03:45;16.50;99.90
17421;DHT22;8828;48.800;9.540;2023-05-10T08:06:14;16.50;99.90
17421;DHT22;8828;48.800;9.540;2023-05-10T08:08:42;16.60;99.90
17421;DHT22;8828;48.800;9.540;2023-05-10T08:11:12;16.70;99.90
17421;DHT22;8828;48.800;9.540;2023-05-10T08:13:40;16.80;99.90
17421;DHT22;8828;48.800;9.540;2023-05-10T08:16:08;16.90;99.90
17421;DHT22;8828;48.800;9.540;2023-05-10T08:18:38;17.00;99.90
17421;DHT22;8828;48.800;9.540;2023-05-10T08:21:06;17.00;99.90
17421;DHT22;8828;48.800;9.540;2023-05-10T08:23:34;17.00;99.90
17421;DHT22;8828;48.800;9.540;2023-05-10T08:26:02;17.10;99.90
17421;DHT22;8828;48.800;9.540;2023-05-10T08:28:31;17.10;99.90
17421;DHT22;8828;48.800;9.540;2023-05-10T08:30:59;17.20;99.90
17421;DHT22;8828;48.800;9.540;2023-05-10T08:33:27;17.20;99.90
17421;DHT22;8828;48.800;9.540;2023-05-10T08:35:56;17.20;99.90
17421;DHT22;8828;48.800;9.540;2023-05-10T08:38:24;17.20;99.90
17421;DHT22;8828;48.800;9.540;2023-05-10T08:40:53;17.20;99.90
17421;DHT22;8828;48.800;9.540;2023-05-10T08:43:26;17.10;99.90
17421;DHT22;8828;48.800;9.540;2023-05-10T08:45:56;17.10;99.90
17421;DHT22;8828;48.800;9.540;2023-05-10T08:48:24;17.20;99.90
17421;DHT22;8828;48.800;9.540;2023-05-10T08:50:53;17.20;99.90
17421;DHT22;8828;48.800;9.540;2023-05-10T08:53:24;17.20;99.90
17421;DHT22;8828;48.800;9.540;2023-05-10T08:55:54;17.20;99.90
17421;DHT22;8828;48.800;9.540;2023-05-10T08:58:23;17.20;99.90
17421;DHT22;8828;48.800;9.540;2023-05-10T09:00:51;17.20;99.90
17421;DHT22;8828;48.800;9.540;2023-05-10T09:03:19;17.20;99.90
17421;DHT22;8828;48.800;9.540;2023-05-10T09:05:47;17.20;99.90
17421;DHT22;8828;48.800;9.540;2023-05-10T09:08:16;17.10;99.90
17421;DHT22;8828;48.800;9.540;2023-05-10T09:10:46;17.00;99.90
17421;DHT22;8828;48.800;9.540;2023-05-10T09:13:16;17.00;99.90
17421;DHT22;8828;48.800;9.540;2023-05-10T09:15:45;17.00;99.90
17421;DHT22;8828;48.800;9.540;2023-05-10T09:18:13;16.90;99.90
17421;DHT22;8828;48.800;9.540;2023-05-10T09:20:41;17.00;99.90
17421;DHT22;8828;48.800;9.540;2023-05-10T09:23:09;17.00;99.90
17421;DHT22;8828;48.800;9.540;2023-05-10T09:25:38;17.00;99.90
17421;DHT22;8828;48.800;9.540;2023-05-10T09:28:11;17.00;99.90
17421;DHT22;8828;48.800;9.540;2023-05-10T09:30:39;17.00;99.90
17421;DHT22;8828;48.800;9.540;2023-05-10T09:33:07;17.00;99.90
17421;DHT22;8828;48.800;9.540;2023-05-10T09:35:35;17.00;99.90
17421;DHT22;8828;48.800;9.540;2023-05-10T09:38:04;17.00;99.90
17421;DHT22;8828;48.800;9.540;2023-05-10T09:40:32;16.90;99.90
17421;DHT22;8828;48.800;9.540;2023-05-10T09:43:02;16.90;99.90
17421;DHT22;8828;48.800;9.540;2023-05-10T09:45:33;16.90;99.90
17421;DHT22;8828;48.800;9.540;2023-05-10T09:48:05;16.90;99.90
17421;DHT22;8828;48.800;9.540;2023-05-10T09:50:33;16.90;99.90
17421;DHT22;8828;48.800;9.540;2023-05-10T09:53:03;17.00;99.90
17421;DHT22;8828;48.800;9.540;2023-05-10T09:55:39;17.00;99.90
17421;DHT22;8828;48.800;9.540;2023-05-10T09:58:07;17.10;99.90
17421;DHT22;8828;48.800;9.540;2023-05-10T10:00:40;17.10;99.90
17421;DHT22;8828;48.800;9.540;2023-05-10T10:03:13;17.20;99.90
17421;DHT22;8828;48.800;9.540;2023-05-10T10:05:42;17.30;99.90
17421;DHT22;8828;48.800;9.540;2023-05-10T10:08:11;17.30;99.90
17421;DHT22;8828;48.800;9.540;2023-05-10T10:10:39;17.30;99.90
17421;DHT22;8828;48.800;9.540;2023-05-10T10:13:08;17.30;99.90
17421;DHT22;8828;48.800;9.540;2023-05-10T10:15:36;17.40;99.90
17421;DHT22;8828;48.800;9.540;2023-05-10T10:18:06;17.40;99.90
17421;DHT22;8828;48.800;9.540;2023-05-10T10:20:37;17.40;99.90
17421;DHT22;8828;48.800;9.540;2023-05-10T10:23:05;17.40;99.90
17421;DHT22;8828;48.800;9.540;2023-05-10T10:25:33;17.40;99.90
17421;DHT22;8828;48.800;9.540;2023-05-10T10:28:13;17.40;99.90
17421;DHT22;8828;48.800;9.540;2023-05-10T10:30:47;17.40;99.90
17421;DHT22;8828;48.800;9.540;2023-05-10T10:33:33;17.40;99.90
17421;DHT22;8828;48.800;9.540;2023-05-10T10:36:04;17.40;99.90
17421;DHT22;8828;48.800;9.540;2023-05-10T10:38:37;17.40;99.90
17421;DHT22;8828;48.800;9.540;2023-05-10T10:41:09;17.50;99.90
17421;DHT22;8828;48.800;9.540;2023-05-10T10:43:38;17.60;99.90
17421;DHT22;8828;48.800;9.540;2023-05-10T10:46:10;17.60;99.90
17421;DHT22;8828;48.800;9.540;2023-05-10T10:48:40;17.60;99.90
17421;DHT22;8828;48.800;9.540;2023-05-10T10:51:08;17.60;99.90
17421;DHT22;8828;48.800;9.540;2023-05-10T10:53:38;17.50;99.90
17421;DHT22;8828;48.800;9.540;2023-05-10T10:56:08;17.40;99.90
17421;DHT22;8828;48.800;9.540;2023-05-10T10:58:38;17.30;99.90
17421;DHT22;8828;48.800;9.540;2023-05-10T11:01:11;17.30;99.90
17421;DHT22;8828;48.800;9.540;2023-05-10T11:03:54;17.20;99.90
17421;DHT22;8828;48.800;9.540;2023-05-10T11:06:29;17.10;99.90
17421;DHT22;8828;48.800;9.540;2023-05-10T11:08:58;17.10;99.90
17421;DHT22;8828;48.800;9.540;2023-05-10T11:11:26;17.10;99.90
17421;DHT22;8828;48.800;9.540;2023-05-10T11:14:03;17.10;99.90
17421;DHT22;8828;48.800;9.540;2023-05-10T11:16:41;17.00;99.90
17421;DHT22;8828;48.800;9.540;2023-05-10T11:19:12;17.00;99.90
17421;DHT22;8828;48.800;9.540;2023-05-10T11:21:47;17.10;99.90
17421;DHT22;8828;48.800;9.540;2023-05-10T11:24:16;17.10;99.90
17421;DHT22;8828;48.800;9.540;2023-05-10T11:26:45;17.10;99.90
17421;DHT22;8828;48.800;9.540;2023-05-10T11:29:13;17.10;99.90
17421;DHT22;8828;48.800;9.540;2023-05-10T11:31:44;17.20;99.90
17421;DHT22;8828;48.800;9.540;2023-05-10T11:34:25;17.20;99.90
17421;DHT22;8828;48.800;9.540;2023-05-10T11:36:54;17.10;99.90
17421;DHT22;8828;48.800;9.540;2023-05-10T11:39:26;17.10;99.90
17421;DHT22;8828;48.800;9.540;2023-05-10T11:41:55;17.10;99.90
17421;DHT22;8828;48.800;9.540;2023-05-10T11:44:23;17.10;99.90
17421;DHT22;8828;48.800;9.540;2023-05-10T11:46:52;17.10;99.90
17421;DHT22;8828;48.800;9.540;2023-05-10T11:49:20;17.10;99.90
17421;DHT22;8828;48.800;9.540;2023-05-10T11:51:52;17.20;99.90
17421;DHT22;8828;48.800;9.540;2023-05-10T11:54:20;17.30;99.90
17421;DHT22;8828;48.800;9.540;2023-05-10T11:56:48;17.40;99.90
17421;DHT22;8828;48.800;9.540;2023-05-10T11:59:17;17.40;99.90
17421;DHT22;8828;48.800;9.540;2023-05-10T12:01:45;17.30;99.90
17421;DHT22;8828;48.800;9.540;2023-05-10T12:04:13;17.30;99.90
17421;DHT22;8828;48.800;9.540;2023-05-10T12:06:41;17.30;99.90
17421;DHT22;8828;48.800;9.540;2023-05-10T12:09:11;17.20;99.90
17421;DHT22;8828;48.800;9.540;2023-05-10T12:11:40;17.20;99.90
17421;DHT22;8828;48.800;9.540;2023-05-10T12:14:10;17.10;99.90
17421;DHT22;8828;48.800;9.540;2023-05-10T12:16:38;17.10;99.90
17421;DHT22;8828;48.800;9.540;2023-05-10T12:19:06;17.00;99.90
17421;DHT22;8828;48.800;9.540;2023-05-10T12:21:34;17.00;99.90
17421;DHT22;8828;48.800;9.540;2023-05-10T12:24:03;17.00;99.90
17421;DHT22;8828;48.800;9.540;2023-05-10T12:26:35;17.00;99.90
17421;DHT22;8828;48.800;9.540;2023-05-10T12:29:13;16.90;99.90
17421;DHT22;8828;48.800;9.540;2023-05-10T12:31:52;16.90;99.90
17421;DHT22;8828;48.800;9.540;2023-05-10T12:34:25;16.80;99.90
17421;DHT22;8828;48.800;9.540;2023-05-10T12:36:54;16.70;99.90
17421;DHT22;8828;48.800;9.540;2023-05-10T12:39:22;16.60;99.90
17421;DHT22;8828;48.800;9.540;2023-05-10T12:41:51;16.60;99.90
17421;DHT22;8828;48.800;9.540;2023-05-10T12:44:19;16.60;99.90
17421;DHT22;8828;48.800;9.540;2023-05-10T12:46:47;16.50;99.90
17421;DHT22;8828;48.800;9.540;2023-05-10T12:49:15;16.40;99.90
17421;DHT22;8828;48.800;9.540;2023-05-10T12:51:45;16.30;99.90
17421;DHT22;8828;48.800;9.540;2023-05-10T12:54:13;16.20;99.90
17421;DHT22;8828;48.800;9.540;2023-05-10T12:56:41;16.20;99.90
17421;DHT22;8828;48.800;9.540;2023-05-10T12:59:10;16.20;99.90
17421;DHT22;8828;48.800;9.540;2023-05-10T13:01:38;16.10;99.90
17421;DHT22;8828;48.800;9.540;2023-05-10T13:04:06;16.10;99.90
17421;DHT22;8828;48.800;9.540;2023-05-10T13:06:34;16.20;99.90
17421;DHT22;8828;48.800;9.540;2023-05-10T13:09:02;16.20;99.90
17421;DHT22;8828;48.800;9.540;2023-05-10T13:11:31;16.20;99.90
17421;DHT22;8828;48.800;9.540;2023-05-10T13:13:59;16.30;99.90
17421;DHT22;8828;48.800;9.540;2023-05-10T13:16:28;16.30;99.90
17421;DHT22;8828;48.800;9.540;2023-05-10T13:18:56;16.30;99.90
17421;DHT22;8828;48.800;9.540;2023-05-10T13:21:25;16.40;99.90
17421;DHT22;8828;48.800;9.540;2023-05-10T13:23:53;16.40;99.90
17421;DHT22;8828;48.800;9.540;2023-05-10T13:26:21;16.50;99.90
17421;DHT22;8828;48.800;9.540;2023-05-10T13:28:49;16.50;99.90
17421;DHT22;8828;48.800;9.540;2023-05-10T13:31:18;16.50;99.90
17421;DHT22;8828;48.800;9.540;2023-05-10T13:33:48;16.60;99.90
17421;DHT22;8828;48.800;9.540;2023-05-10T13:36:16;16.70;99.90
17421;DHT22;8828;48.800;9.540;2023-05-10T13:38:44;16.70;99.90
17421;DHT22;8828;48.800;9.540;2023-05-10T13:41:12;16.70;99.90
17421;DHT22;8828;48.800;9.540;2023-05-10T13:43:40;16.70;99.90
17421;DHT22;8828;48.800;9.540;2023-05-10T13:46:08;16.80;99.90
17421;DHT22;8828;48.800;9.540;2023-05-10T13:48:36;16.80;99.90
17421;DHT22;8828;48.800;9.540;2023-05-10T13:51:06;16.80;99.90
17421;DHT22;8828;48.800;9.540;2023-05-10T13:53:34;16.80;99.90
17421;DHT22;8828;48.800;9.540;2023-05-10T13:56:02;16.80;99.90
17421;DHT22;8828;48.800;9.540;2023-05-10T13:58:30;16.80;99.90
17421;DHT22;8828;48.800;9.540;2023-05-10T14:00:58;16.80;99.90
17421;DHT22;8828;48.800;9.540;2023-05-10T14:03:26;16.70;99.90
17421;DHT22;8828;48.800;9.540;2023-05-10T14:05:54;16.70;99.90
17421;DHT22;8828;48.800;9.540;2023-05-10T14:08:23;16.70;99.90
17421;DHT22;8828;48.800;9.540;2023-05-10T14:10:53;16.70;99.90
17421;DHT22;8828;48.800;9.540;2023-05-10T14:13:23;16.70;99.90
17421;DHT22;8828;48.800;9.540;2023-05-10T14:15:52;16.60;99.90
17421;DHT22;8828;48.800;9.540;2023-05-10T14:18:21;16.60;99.90
17421;DHT22;8828;48.800;9.540;2023-05-10T14:20:49;16.70;99.90
17421;DHT22;8828;48.800;9.540;2023-05-10T14:23:16;16.70;99.90
17421;DHT22;8828;48.800;9.540;2023-05-10T14:25:47;16.80;99.90
17421;DHT22;8828;48.800;9.540;2023-05-10T14:28:15;16.90;99.90
17421;DHT22;8828;48.800;9.540;2023-05-10T14:30:43;16.90;99.90
17421;DHT22;8828;48.800;9.540;2023-05-10T14:33:11;16.90;99.90
17421;DHT22;8828;48.800;9.540;2023-05-10T14:35:40;16.90;99.90
17421;DHT22;8828;48.800;9.540;2023-05-10T14:38:08;16.90;99.90
17421;DHT22;8828;48.800;9.540;2023-05-10T14:40:35;16.90;99.90
17421;DHT22;8828;48.800;9.540;2023-05-10T14:43:05;16.90;99.90
17421;DHT22;8828;48.800;9.540;2023-05-10T14:45:33;17.00;99.90
17421;DHT22;8828;48.800;9.540;2023-05-10T14:48:01;17.00;99.90
17421;DHT22;8828;48.800;9.540;2023-05-10T14:50:31;17.00;99.90
17421;DHT22;8828;48.800;9.540;2023-05-10T14:53:03;17.00;99.90
17421;DHT22;8828;48.800;9.540;2023-05-10T14:55:31;17.10;99.90
17421;DHT22;8828;48.800;9.540;2023-05-10T14:57:59;17.20;99.90
17421;DHT22;8828;48.800;9.540;2023-05-10T15:00:29;17.20;99.90
17421;DHT22;8828;48.800;9.540;2023-05-10T15:02:58;17.20;99.90
17421;DHT22;8828;48.800;9.540;2023-05-10T15:05:26;17.20;99.90
17421;DHT22;8828;48.800;9.540;2023-05-10T15:07:54;17.20;99.90
17421;DHT22;8828;48.800;9.540;2023-05-10T15:10:22;17.20;99.90
17421;DHT22;8828;48.800;9.540;2023-05-10T15:12:50;17.10;99.90
17421;DHT22;8828;48.800;9.540;2023-05-10T15:15:18;17.10;99.90
17421;DHT22;8828;48.800;9.540;2023-05-10T15:17:48;17.10;99.90
17421;DHT22;8828;48.800;9.540;2023-05-10T15:20:16;17.10;99.90
17421;DHT22;8828;48.800;9.540;2023-05-10T15:22:44;17.00;99.90
17421;DHT22;8828;48.800;9.540;2023-05-10T15:25:12;16.90;99.90
17421;DHT22;8828;48.800;9.540;2023-05-10T15:27:40;17.00;99.90
17421;DHT22;8828;48.800;9.540;2023-05-10T15:30:10;17.00;99.90
17421;DHT22;8828;48.800;9.540;2023-05-10T15:32:38;16.90;99.90
17421;DHT22;8828;48.800;9.540;2023-05-10T15:35:09;17.00;99.90
17421;DHT22;8828;48.800;9.540;2023-05-10T15:37:37;17.00;99.90
17421;DHT22;8828;48.800;9.540;2023-05-10T15:40:06;17.00;99.90
17421;DHT22;8828;48.800;9.540;2023-05-10T15:42:34;17.00;99.90
17421;DHT22;8828;48.800;9.540;2023-05-10T15:45:02;17.00;99.90
17421;DHT22;8828;48.800;9.540;2023-05-10T15:47:30;17.00;99.90
17421;DHT22;8828;48.800;9.540;2023-05-10T15:49:58;17.00;99.90
17421;DHT22;8828;48.800;9.540;2023-05-10T15:52:28;17.00;99.90
17421;DHT22;8828;48.800;9.540;2023-05-10T15:54:56;17.00;99.90
17421;DHT22;8828;48.800;9.540;2023-05-10T15:57:24;17.00;99.90
17421;DHT22;8828;48.800;9.540;2023-05-10T15:59:51;17.10;99.90
17421;DHT22;8828;48.800;9.540;2023-05-10T16:02:19;17.00;99.90